Time;durP1;ratioP1;P1;durP2;ratioP2;P2;SDS_P1;SDS_P2;PMS_P1;PMS_P2;Temp;Humidity;BMP_temperature;BMP_pressure;BME280_temperature;BME280_humidity;BME280_pressure;Samples;Min_cycle;Max_cycle;Signal;HPM_P1;HPM_P2
2020/12/08 00:00:26;;;;;;;12.70;8.70;;;7.00;99.90;;;;;;5017556;28;20084;-64
2020/12/08 00:02:52;;;;;;;16.75;9.32;;;6.90;99.90;;;;;;5019319;28;20024;-66
2020/12/08 00:05:19;;;;;;;14.43;9.55;;;6.90;99.90;;;;;;5018505;28;20050;-67
2020/12/08 00:07:45;;;;;;;17.67;9.65;;;6.90;99.90;;;;;;5018635;28;20130;-66
2020/12/08 00:10:11;;;;;;;16.75;10.20;;;6.90;99.90;;;;;;5016228;28;20463;-64
2020/12/08 00:12:37;;;;;;;14.07;9.30;;;6.90;99.90;;;;;;5015505;28;20052;-66
2020/12/08 00:15:04;;;;;;;18.08;10.50;;;6.90;99.90;;;;;;5016755;28;20421;-68
2020/12/08 00:17:31;;;;;;;14.57;10.10;;;6.90;99.90;;;;;;5017949;28;20030;-65
2020/12/08 00:19:56;;;;;;;13.32;9.25;;;6.90;99.90;;;;;;5017748;28;20037;-66
2020/12/08 00:22:22;;;;;;;15.98;10.00;;;6.90;99.90;;;;;;5017605;28;20018;-70
2020/12/08 00:24:47;;;;;;;14.95;10.30;;;6.90;99.90;;;;;;5019649;28;20377;-68
2020/12/08 00:27:13;;;;;;;14.77;9.02;;;6.80;99.90;;;;;;5016275;28;20026;-69
2020/12/08 00:29:39;;;;;;;14.32;9.00;;;6.80;99.90;;;;;;5017473;28;20052;-68
2020/12/08 00:32:06;;;;;;;14.75;9.27;;;6.80;99.90;;;;;;5015612;28;20034;-66
2020/12/08 00:34:32;;;;;;;14.30;9.55;;;6.80;99.90;;;;;;5018481;28;20032;-65
2020/12/08 00:36:58;;;;;;;12.40;8.25;;;6.80;99.90;;;;;;5018826;28;20092;-68
2020/12/08 00:39:23;;;;;;;14.30;9.63;;;6.70;99.90;;;;;;5018493;28;20040;-67
2020/12/08 00:41:49;;;;;;;15.63;9.18;;;6.80;99.90;;;;;;5018968;28;20041;-65
2020/12/08 00:44:15;;;;;;;13.95;9.68;;;6.80;99.90;;;;;;5016952;28;20030;-67
2020/12/08 00:46:40;;;;;;;14.90;9.70;;;6.80;99.90;;;;;;5015750;28;20124;-67
2020/12/08 00:49:06;;;;;;;14.73;9.93;;;6.80;99.90;;;;;;5017744;28;20025;-63
2020/12/08 00:51:32;;;;;;;13.23;8.65;;;6.90;99.90;;;;;;5016940;28;20045;-62
2020/12/08 00:53:58;;;;;;;13.13;9.40;;;6.90;99.90;;;;;;5017404;28;20057;-65
2020/12/08 00:56:23;;;;;;;14.80;8.70;;;6.90;99.90;;;;;;5016710;28;20053;-68
2020/12/08 00:58:49;;;;;;;17.95;9.88;;;6.90;99.90;;;;;;5016731;28;20488;-63
2020/12/08 01:01:15;;;;;;;16.55;10.40;;;6.80;99.90;;;;;;5016826;28;20026;-67
2020/12/08 01:03:40;;;;;;;14.07;8.90;;;6.80;99.90;;;;;;5015920;28;20041;-63
2020/12/08 01:06:09;;;;;;;13.50;8.88;;;6.80;99.90;;;;;;5019873;28;20394;-65
2020/12/08 01:08:36;;;;;;;14.63;9.35;;;6.80;99.90;;;;;;5016748;28;20090;-64
2020/12/08 01:11:01;;;;;;;12.60;8.90;;;6.80;99.90;;;;;;5016962;28;20026;-67
2020/12/08 01:13:27;;;;;;;13.55;9.32;;;6.80;99.90;;;;;;5015305;28;20026;-64
2020/12/08 01:15:52;;;;;;;15.15;9.48;;;6.80;99.90;;;;;;5016312;28;20054;-62
2020/12/08 01:18:18;;;;;;;16.13;9.43;;;6.80;99.90;;;;;;5019528;28;20030;-68
2020/12/08 01:20:45;;;;;;;12.63;8.90;;;6.80;99.90;;;;;;5017636;28;20082;-64
2020/12/08 01:23:10;;;;;;;14.18;9.50;;;6.80;99.90;;;;;;5017437;28;20421;-66
2020/12/08 01:25:36;;;;;;;14.25;9.18;;;6.80;99.90;;;;;;5016307;28;20075;-66
2020/12/08 01:28:02;;;;;;;15.00;9.90;;;6.80;99.90;;;;;;5015979;28;20558;-62
2020/12/08 01:30:27;;;;;;;14.25;10.02;;;6.80;99.90;;;;;;5015927;28;20026;-62
2020/12/08 01:32:53;;;;;;;15.82;10.40;;;6.80;99.90;;;;;;5015076;28;20086;-66
2020/12/08 01:35:20;;;;;;;16.40;9.23;;;6.80;99.90;;;;;;5021515;28;20025;-69
2020/12/08 01:37:45;;;;;;;13.70;8.85;;;6.80;99.90;;;;;;5016989;28;20384;-62
2020/12/08 01:40:11;;;;;;;14.52;9.07;;;6.80;99.90;;;;;;5015879;28;20474;-66
2020/12/08 01:42:37;;;;;;;13.32;9.38;;;6.80;99.90;;;;;;5015760;28;20038;-64
2020/12/08 01:45:03;;;;;;;14.65;9.65;;;6.80;99.90;;;;;;5014914;28;20370;-65
2020/12/08 01:47:29;;;;;;;13.70;9.70;;;6.80;99.90;;;;;;5017309;28;20074;-64
2020/12/08 01:49:55;;;;;;;15.02;9.48;;;6.80;99.90;;;;;;5017756;28;20045;-66
2020/12/08 01:52:21;;;;;;;14.93;10.18;;;6.80;99.90;;;;;;5017009;28;20022;-67
2020/12/08 01:54:50;;;;;;;13.75;9.80;;;6.80;99.90;;;;;;5016965;28;20030;-65
2020/12/08 01:57:16;;;;;;;13.68;10.05;;;6.80;99.90;;;;;;5014341;28;20026;-68
2020/12/08 01:59:42;;;;;;;17.35;10.50;;;6.80;99.90;;;;;;5016707;28;20319;-64
2020/12/08 02:02:08;;;;;;;14.35;10.32;;;6.80;99.90;;;;;;5015618;28;20360;-67
2020/12/08 02:04:35;;;;;;;16.35;9.82;;;6.80;99.90;;;;;;5015689;28;20441;-65
2020/12/08 02:07:01;;;;;;;14.25;9.60;;;6.80;99.90;;;;;;5015794;28;20032;-67
2020/12/08 02:09:26;;;;;;;15.00;10.40;;;6.80;99.90;;;;;;5018375;28;20108;-65
2020/12/08 02:11:52;;;;;;;13.65;9.82;;;6.90;99.90;;;;;;5015510;28;20435;-65
2020/12/08 02:14:18;;;;;;;14.55;9.38;;;6.90;99.90;;;;;;5013765;28;20377;-66
2020/12/08 02:16:43;;;;;;;14.55;9.25;;;6.80;99.90;;;;;;5015464;28;20030;-63
2020/12/08 02:19:09;;;;;;;13.15;9.50;;;6.90;99.90;;;;;;5014635;28;20367;-66
2020/12/08 02:21:34;;;;;;;13.68;9.75;;;6.90;99.90;;;;;;5015808;28;20034;-66
2020/12/08 02:24:01;;;;;;;14.27;10.15;;;6.90;99.90;;;;;;5013325;28;20088;-64
2020/12/08 02:26:27;;;;;;;15.40;10.75;;;6.90;99.90;;;;;;5015204;28;20078;-64
2020/12/08 02:28:54;;;;;;;14.93;9.80;;;6.80;99.90;;;;;;5017137;28;20060;-65
2020/12/08 02:31:20;;;;;;;14.90;9.65;;;6.80;99.90;;;;;;5014294;28;20028;-65
2020/12/08 02:33:46;;;;;;;16.27;10.38;;;6.80;99.90;;;;;;5017341;28;20048;-67
2020/12/08 02:36:12;;;;;;;14.95;9.95;;;6.80;99.90;;;;;;5016263;28;20045;-64
2020/12/08 02:38:37;;;;;;;13.88;9.30;;;6.80;99.90;;;;;;5014210;28;20057;-64
2020/12/08 02:41:04;;;;;;;14.40;9.50;;;6.90;99.90;;;;;;5016738;28;20099;-67
2020/12/08 02:43:30;;;;;;;14.75;9.73;;;6.90;99.90;;;;;;5016774;28;20359;-66
2020/12/08 02:45:58;;;;;;;13.70;9.77;;;6.90;99.90;;;;;;5017716;28;20093;-66
2020/12/08 02:48:23;;;;;;;15.18;10.38;;;6.90;99.90;;;;;;5016338;28;20026;-67
2020/12/08 02:50:49;;;;;;;13.63;9.50;;;6.80;99.90;;;;;;5018227;28;20037;-64
2020/12/08 02:53:15;;;;;;;15.20;9.98;;;6.90;99.90;;;;;;5014825;28;20386;-67
2020/12/08 02:55:44;;;;;;;15.50;9.88;;;6.90;99.90;;;;;;5015973;28;20061;-64
2020/12/08 02:58:09;;;;;;;14.48;9.35;;;6.90;99.90;;;;;;5015842;28;20022;-65
2020/12/08 03:00:35;;;;;;;16.23;10.18;;;6.90;99.90;;;;;;5018208;28;20442;-66
2020/12/08 03:03:01;;;;;;;14.10;9.68;;;6.90;99.90;;;;;;5015620;28;20048;-67
2020/12/08 03:05:26;;;;;;;12.68;9.43;;;6.90;99.90;;;;;;5016673;28;20116;-66
2020/12/08 03:07:52;;;;;;;14.50;10.45;;;6.90;99.90;;;;;;5014314;28;20030;-64
2020/12/08 03:10:17;;;;;;;15.73;11.00;;;6.90;99.90;;;;;;5017769;28;20044;-66
2020/12/08 03:12:43;;;;;;;13.68;9.90;;;7.00;99.90;;;;;;5018269;28;20017;-66
2020/12/08 03:15:09;;;;;;;16.02;10.70;;;7.00;99.90;;;;;;5021481;28;20034;-63
2020/12/08 03:17:35;;;;;;;14.30;9.95;;;7.00;99.90;;;;;;5017189;28;20034;-63
2020/12/08 03:20:01;;;;;;;14.85;10.23;;;7.00;99.90;;;;;;5019391;28;20038;-66
2020/12/08 03:22:26;;;;;;;14.10;9.98;;;7.00;99.90;;;;;;5017779;28;20042;-62
2020/12/08 03:24:52;;;;;;;16.63;9.88;;;7.10;99.90;;;;;;5018361;28;20113;-68
2020/12/08 03:27:18;;;;;;;16.58;10.45;;;7.00;99.90;;;;;;5020547;28;20028;-62
2020/12/08 03:29:44;;;;;;;14.43;9.63;;;7.10;99.90;;;;;;5020942;28;20470;-66
2020/12/08 03:32:10;;;;;;;12.73;9.35;;;7.10;99.90;;;;;;5016233;28;20067;-66
2020/12/08 03:34:35;;;;;;;14.25;9.55;;;7.10;99.90;;;;;;5018388;28;20042;-63
2020/12/08 03:37:01;;;;;;;14.23;9.57;;;7.10;99.90;;;;;;5018257;28;20168;-67
2020/12/08 03:39:26;;;;;;;14.55;9.60;;;7.10;99.90;;;;;;5019723;28;20041;-67
2020/12/08 03:41:59;;;;;;;14.45;9.82;;;7.10;99.90;;;;;;5018097;28;20396;-64
2020/12/08 03:44:28;;;;;;;15.43;10.40;;;7.00;99.90;;;;;;5019170;28;20034;-63
2020/12/08 03:47:01;;;;;;;11.70;9.15;;;7.00;99.90;;;;;;5020478;28;20034;-65
2020/12/08 03:49:27;;;;;;;13.43;9.35;;;7.00;99.90;;;;;;5017375;28;20030;-66
2020/12/08 03:51:56;;;;;;;12.77;8.85;;;7.00;99.90;;;;;;5015328;28;20065;-64
2020/12/08 03:54:22;;;;;;;;;;;7.00;99.90;;;;;;5020017;28;20030;-66
2020/12/08 03:56:48;;;;;;;13.57;8.60;;;7.00;99.90;;;;;;5017435;28;19952;-66
2020/12/08 03:59:17;;;;;;;12.50;8.40;;;7.00;99.90;;;;;;5019572;28;20068;-64
2020/12/08 04:01:47;;;;;;;15.52;9.15;;;7.00;99.90;;;;;;5018329;28;20037;-65
2020/12/08 04:04:13;;;;;;;12.43;8.35;;;6.90;99.90;;;;;;5019884;28;20037;-65
2020/12/08 04:06:39;;;;;;;11.15;6.40;;;6.90;99.90;;;;;;5018942;28;20033;-64
2020/12/08 04:09:05;;;;;;;11.77;7.28;;;6.90;99.90;;;;;;5016848;28;20041;-67
2020/12/08 04:11:32;;;;;;;12.63;7.57;;;7.00;99.90;;;;;;5019048;28;20086;-65
2020/12/08 04:13:59;;;;;;;11.07;7.93;;;7.00;99.90;;;;;;5019224;28;20034;-63
2020/12/08 04:16:25;;;;;;;10.45;7.43;;;7.00;99.90;;;;;;5019624;28;20045;-63
2020/12/08 04:18:50;;;;;;;12.02;7.13;;;7.10;99.90;;;;;;5017610;28;20026;-67
2020/12/08 04:21:24;;;;;;;10.23;6.10;;;7.00;99.90;;;;;;5017689;28;20060;-63
2020/12/08 04:23:54;;;;;;;9.75;5.88;;;7.10;99.90;;;;;;5017462;28;20054;-64
2020/12/08 04:26:20;;;;;;;9.95;5.80;;;7.10;99.90;;;;;;5018536;28;20037;-67
2020/12/08 04:28:46;;;;;;;10.00;6.00;;;7.10;99.90;;;;;;5019418;28;20462;-64
2020/12/08 04:31:16;;;;;;;9.93;5.95;;;7.00;99.90;;;;;;5017031;28;20466;-63
2020/12/08 04:33:42;;;;;;;8.32;5.85;;;7.00;99.90;;;;;;5018432;28;20041;-64
2020/12/08 04:36:15;;;;;;;10.00;5.80;;;7.00;99.90;;;;;;5018630;28;20041;-65
2020/12/08 04:38:42;;;;;;;10.68;6.38;;;7.10;99.90;;;;;;5018975;28;20045;-68
2020/12/08 04:41:09;;;;;;;9.07;5.78;;;7.00;99.90;;;;;;5018166;28;20034;-64
2020/12/08 04:43:38;;;;;;;8.35;5.47;;;7.10;99.90;;;;;;5016388;28;20033;-68
2020/12/08 04:46:05;;;;;;;8.63;5.68;;;7.10;99.90;;;;;;5020181;28;20049;-63
2020/12/08 04:48:30;;;;;;;8.65;6.25;;;7.00;99.90;;;;;;5016598;28;20022;-65
2020/12/08 04:50:56;;;;;;;8.90;6.22;;;7.10;99.90;;;;;;5015473;28;20048;-64
2020/12/08 04:53:22;;;;;;;8.40;6.28;;;7.10;99.90;;;;;;5018405;28;20033;-65
2020/12/08 04:55:49;;;;;;;8.10;5.35;;;7.10;99.90;;;;;;5015285;28;20048;-64
2020/12/08 04:58:16;;;;;;;9.82;5.65;;;7.00;99.90;;;;;;5016596;28;20470;-65
2020/12/08 05:00:42;;;;;;;8.25;5.40;;;7.10;99.90;;;;;;5019023;28;20462;-66
2020/12/08 05:03:08;;;;;;;8.60;5.22;;;7.10;99.90;;;;;;5018037;28;20517;-63
2020/12/08 05:05:41;;;;;;;7.65;4.97;;;7.00;99.90;;;;;;5018275;28;20413;-63
2020/12/08 05:08:14;;;;;;;8.20;5.43;;;7.10;99.90;;;;;;5015677;28;20029;-66
2020/12/08 05:10:41;;;;;;;7.85;5.10;;;7.10;99.90;;;;;;5019446;28;20351;-65
2020/12/08 05:13:25;;;;;;;9.27;5.72;;;7.00;99.90;;;;;;5015762;28;20116;-63
2020/12/08 05:15:58;;;;;;;7.38;5.18;;;7.00;99.90;;;;;;5018777;28;20374;-63
2020/12/08 05:18:24;;;;;;;8.40;4.82;;;7.00;99.90;;;;;;5019301;28;20437;-63
2020/12/08 05:20:50;;;;;;;7.35;4.93;;;7.00;99.90;;;;;;5017878;28;20370;-67
2020/12/08 05:23:15;;;;;;;7.15;4.50;;;6.90;99.90;;;;;;5014888;28;20029;-64
2020/12/08 05:25:44;;;;;;;9.38;5.65;;;6.90;99.90;;;;;;5015526;28;20030;-64
2020/12/08 05:28:19;;;;;;;7.53;5.47;;;6.80;99.90;;;;;;5019495;28;20371;-66
2020/12/08 05:30:46;;;;;;;6.97;3.70;;;6.80;99.90;;;;;;5015254;28;20253;-66
2020/12/08 05:33:17;;;;;;;5.97;3.65;;;6.80;99.90;;;;;;5016603;28;20037;-67
2020/12/08 05:35:46;;;;;;;6.00;3.50;;;6.70;99.90;;;;;;5016653;28;20026;-64
2020/12/08 05:38:15;;;;;;;6.65;3.45;;;6.70;99.90;;;;;;5018294;28;20026;-65
2020/12/08 05:40:44;;;;;;;4.38;2.72;;;6.70;99.90;;;;;;5014963;28;20022;-65
2020/12/08 05:43:10;;;;;;;5.07;3.00;;;6.60;99.90;;;;;;5016122;28;20022;-66
2020/12/08 05:45:37;;;;;;;5.85;2.92;;;6.60;99.90;;;;;;5016531;28;20029;-66
2020/12/08 05:48:03;;;;;;;5.30;3.05;;;6.60;99.90;;;;;;5015831;28;20025;-64
2020/12/08 05:50:29;;;;;;;5.50;3.08;;;6.60;99.90;;;;;;5019677;28;20053;-67
2020/12/08 05:52:57;;;;;;;5.78;2.72;;;6.60;99.90;;;;;;5018172;28;20017;-66
2020/12/08 05:55:31;;;;;;;4.53;2.70;;;6.60;99.90;;;;;;5014302;28;20037;-66
2020/12/08 05:58:05;;;;;;;5.70;3.00;;;6.50;99.90;;;;;;5015746;28;20041;-65
2020/12/08 06:00:32;;;;;;;4.97;3.17;;;6.60;99.90;;;;;;5015716;28;20038;-67
2020/12/08 06:03:14;;;;;;;5.55;3.30;;;6.50;99.90;;;;;;5014955;28;20486;-61
2020/12/08 06:05:41;;;;;;;7.38;3.72;;;6.50;99.90;;;;;;5016230;28;20041;-63
2020/12/08 06:08:19;;;;;;;5.80;3.47;;;6.50;99.90;;;;;;5018839;28;20030;-65
2020/12/08 06:10:50;;;;;;;6.07;3.67;;;6.60;99.90;;;;;;5015012;28;20104;-65
2020/12/08 06:13:27;;;;;;;6.43;3.60;;;6.60;99.90;;;;;;5017214;28;20045;-67
2020/12/08 06:15:53;;;;;;;6.38;3.78;;;6.50;99.90;;;;;;5015463;28;20022;-66
2020/12/08 06:18:33;;;;;;;5.68;3.53;;;6.50;99.90;;;;;;5016909;28;20133;-67
2020/12/08 06:21:01;;;;;;;6.28;3.80;;;6.60;99.90;;;;;;5016035;28;20461;-67
2020/12/08 06:23:27;;;;;;;6.78;3.50;;;6.60;99.90;;;;;;5016416;28;20038;-63
2020/12/08 06:26:03;;;;;;;6.28;3.83;;;6.70;99.90;;;;;;5016224;28;20073;-67
2020/12/08 06:28:29;;;;;;;5.28;3.33;;;6.70;99.90;;;;;;5015063;28;20069;-64
2020/12/08 06:31:02;;;;;;;6.45;3.90;;;6.60;99.90;;;;;;5014709;28;20026;-64
2020/12/08 06:33:29;;;;;;;6.05;3.83;;;6.70;99.90;;;;;;5015563;28;20561;-67
2020/12/08 06:36:02;;;;;;;5.57;3.60;;;6.60;99.90;;;;;;5018046;28;20029;-66
2020/12/08 06:38:28;;;;;;;7.15;3.97;;;6.70;99.90;;;;;;5017527;28;20022;-67
2020/12/08 06:40:54;;;;;;;8.00;4.45;;;6.60;99.90;;;;;;5014989;28;20026;-66
2020/12/08 06:43:21;;;;;;;6.60;4.35;;;6.60;99.90;;;;;;5016178;28;20418;-65
2020/12/08 06:45:47;;;;;;;7.65;5.15;;;6.70;99.90;;;;;;5019085;28;20057;-67
2020/12/08 06:48:17;;;;;;;7.07;3.95;;;6.70;99.90;;;;;;5021630;28;20076;-64
2020/12/08 06:50:43;;;;;;;7.05;4.47;;;6.70;99.90;;;;;;5019797;28;20454;-66
2020/12/08 06:53:08;;;;;;;6.43;4.63;;;6.70;99.90;;;;;;5020406;28;20037;-65
2020/12/08 06:55:47;;;;;;;7.18;4.20;;;6.70;99.90;;;;;;5019403;28;20041;-66
2020/12/08 06:58:12;;;;;;;7.18;4.45;;;6.70;99.90;;;;;;5018828;28;20052;-67
2020/12/08 07:00:38;;;;;;;6.00;3.78;;;6.70;99.90;;;;;;5020431;28;20022;-66
2020/12/08 07:03:04;;;;;;;6.28;4.13;;;6.60;99.90;;;;;;5017062;28;20096;-67
2020/12/08 07:05:32;;;;;;;6.97;4.53;;;6.70;99.90;;;;;;5020133;28;20425;-65
2020/12/08 07:07:59;;;;;;;8.25;4.53;;;6.70;99.90;;;;;;5020754;28;20133;-64
2020/12/08 07:10:25;;;;;;;7.00;4.55;;;6.70;99.90;;;;;;5019196;28;20046;-62
2020/12/08 07:12:54;;;;;;;6.18;4.10;;;6.80;99.90;;;;;;5015789;28;20026;-63
2020/12/08 07:15:25;;;;;;;6.78;3.85;;;6.80;99.90;;;;;;5021315;28;20032;-67
2020/12/08 07:17:57;;;;;;;7.70;4.75;;;6.80;99.90;;;;;;5021443;28;20037;-69
2020/12/08 07:20:24;;;;;;;5.65;3.90;;;6.80;99.90;;;;;;5019747;28;20033;-64
2020/12/08 07:22:50;;;;;;;6.47;4.10;;;6.70;99.90;;;;;;5019286;28;20029;-67
2020/12/08 07:25:16;;;;;;;7.60;4.25;;;6.70;99.90;;;;;;5022116;28;20037;-64
2020/12/08 07:27:51;;;;;;;7.32;4.15;;;6.70;99.90;;;;;;5018324;28;20030;-64
2020/12/08 07:30:29;;;;;;;5.95;3.80;;;6.80;99.90;;;;;;5021343;28;20072;-66
2020/12/08 07:33:06;;;;;;;6.07;3.77;;;6.80;99.90;;;;;;5017912;28;20100;-65
2020/12/08 07:35:35;;;;;;;6.60;3.92;;;6.90;99.90;;;;;;5018677;28;20029;-63
2020/12/08 07:38:01;;;;;;;8.13;4.20;;;6.90;99.90;;;;;;5016975;28;20116;-65
2020/12/08 07:40:32;;;;;;;6.38;4.20;;;6.90;99.90;;;;;;5019987;28;20042;-66
2020/12/08 07:42:58;;;;;;;11.50;4.95;;;6.90;99.90;;;;;;5021011;28;20044;-67
2020/12/08 07:45:24;;;;;;;6.18;4.30;;;6.80;99.90;;;;;;5018572;28;20476;-67
2020/12/08 07:47:55;;;;;;;5.85;3.60;;;6.80;99.90;;;;;;5020485;28;20561;-64
2020/12/08 07:50:32;;;;;;;7.50;3.80;;;6.80;99.90;;;;;;5020718;28;20015;-68
2020/12/08 07:53:02;;;;;;;5.72;3.65;;;6.80;99.90;;;;;;5019328;28;20026;-66
2020/12/08 07:55:38;;;;;;;5.60;3.58;;;6.90;99.90;;;;;;5020124;28;20463;-66
2020/12/08 07:58:03;;;;;;;6.03;3.72;;;6.90;99.90;;;;;;5020361;28;20037;-64
2020/12/08 08:00:30;;;;;;;6.38;3.38;;;6.90;99.90;;;;;;5018577;28;20018;-68
2020/12/08 08:02:58;;;;;;;5.47;3.15;;;6.90;99.90;;;;;;5018126;28;20037;-66
2020/12/08 08:05:23;;;;;;;5.63;3.25;;;6.90;99.90;;;;;;5016166;28;20030;-67
2020/12/08 08:07:49;;;;;;;5.28;3.08;;;6.90;99.90;;;;;;5018753;28;20060;-66
2020/12/08 08:10:15;;;;;;;5.25;3.30;;;6.90;99.90;;;;;;5019679;28;20481;-69
2020/12/08 08:12:40;;;;;;;5.82;3.25;;;6.90;99.90;;;;;;5018121;28;20018;-68
2020/12/08 08:15:07;;;;;;;5.78;3.35;;;6.90;99.90;;;;;;5020801;28;20041;-65
2020/12/08 08:17:33;;;;;;;5.97;3.30;;;6.90;99.90;;;;;;5019835;28;20533;-66
2020/12/08 08:19:59;;;;;;;6.32;4.10;;;6.90;99.90;;;;;;5020265;28;20076;-67
2020/12/08 08:22:24;;;;;;;6.88;3.70;;;6.80;99.90;;;;;;5019006;28;20106;-67
2020/12/08 08:24:50;;;;;;;5.97;3.80;;;6.80;99.90;;;;;;5020217;28;20026;-66
2020/12/08 08:27:16;;;;;;;5.95;3.40;;;6.90;99.90;;;;;;5020665;28;20048;-67
2020/12/08 08:29:42;;;;;;;5.85;3.45;;;6.90;99.90;;;;;;5018107;28;20029;-64
2020/12/08 08:32:07;;;;;;;4.93;3.08;;;6.90;99.90;;;;;;5021339;28;20453;-65
2020/12/08 08:34:33;;;;;;;4.97;3.00;;;6.90;99.90;;;;;;5018017;28;20044;-66
2020/12/08 08:36:59;;;;;;;5.78;3.28;;;6.90;99.90;;;;;;5020852;28;20057;-65
2020/12/08 08:39:24;;;;;;;5.95;3.42;;;7.00;99.90;;;;;;5017210;28;20030;-67
2020/12/08 08:41:54;;;;;;;5.13;3.30;;;7.00;99.90;;;;;;5021150;28;20026;-67
2020/12/08 08:44:20;;;;;;;5.45;3.55;;;7.10;99.90;;;;;;5017667;28;20081;-69
2020/12/08 08:46:46;;;;;;;4.88;2.85;;;7.10;99.90;;;;;;5019105;28;20026;-65
2020/12/08 08:49:15;;;;;;;6.22;3.63;;;7.10;99.90;;;;;;5019979;28;20044;-68
2020/12/08 08:51:43;;;;;;;5.47;3.05;;;7.10;99.90;;;;;;5018754;28;20421;-64
2020/12/08 08:54:09;;;;;;;6.72;4.10;;;7.10;99.90;;;;;;5018180;28;20040;-65
2020/12/08 08:56:35;;;;;;;7.43;3.15;;;7.00;99.90;;;;;;5018112;28;20034;-64
2020/12/08 08:59:00;;;;;;;5.72;2.97;;;7.00;99.90;;;;;;5017528;28;20034;-67
2020/12/08 09:01:26;;;;;;;5.60;3.05;;;7.10;99.90;;;;;;5018911;28;20053;-66
2020/12/08 09:03:51;;;;;;;5.22;2.90;;;7.10;99.90;;;;;;5020288;28;20045;-67
2020/12/08 09:06:17;;;;;;;5.45;3.28;;;7.10;99.90;;;;;;5022516;28;20053;-67
2020/12/08 09:08:42;;;;;;;5.78;3.03;;;7.20;99.90;;;;;;5020295;28;20028;-68
2020/12/08 09:11:08;;;;;;;5.47;3.10;;;7.30;99.90;;;;;;5017341;28;20490;-63
2020/12/08 09:13:35;;;;;;;6.47;3.50;;;7.30;99.90;;;;;;5016086;28;20045;-63
2020/12/08 09:16:00;;;;;;;6.63;3.13;;;7.40;99.90;;;;;;5013967;28;20046;-65
2020/12/08 09:18:26;;;;;;;5.80;2.80;;;7.30;99.90;;;;;;5015414;28;20068;-63
2020/12/08 09:20:52;;;;;;;6.18;3.13;;;7.30;99.90;;;;;;5016758;28;20057;-65
2020/12/08 09:23:20;;;;;;;4.47;2.70;;;7.30;99.90;;;;;;5020923;28;20053;-65
2020/12/08 09:25:45;;;;;;;4.75;2.70;;;7.20;99.90;;;;;;5021569;28;20050;-68
2020/12/08 09:28:11;;;;;;;4.72;2.58;;;7.20;99.90;;;;;;5018939;28;20033;-64
2020/12/08 09:30:37;;;;;;;6.63;2.75;;;7.20;99.90;;;;;;5020015;28;20037;-62
2020/12/08 09:33:02;;;;;;;6.03;3.00;;;7.20;99.90;;;;;;5016292;28;20048;-66
2020/12/08 09:35:28;;;;;;;4.50;2.60;;;7.20;99.90;;;;;;5019156;28;20022;-66
2020/12/08 09:37:53;;;;;;;5.05;2.50;;;7.20;99.90;;;;;;5019163;28;20037;-67
2020/12/08 09:40:20;;;;;;;4.93;2.55;;;7.30;99.90;;;;;;5020916;28;20084;-65
2020/12/08 09:42:47;;;;;;;4.90;2.75;;;7.30;99.90;;;;;;5020325;28;20105;-67
2020/12/08 09:45:13;;;;;;;5.05;2.50;;;7.40;99.90;;;;;;5019289;28;20030;-68
2020/12/08 09:47:39;;;;;;;5.07;2.90;;;7.40;99.90;;;;;;5014436;28;20037;-63
2020/12/08 09:50:07;;;;;;;6.00;3.17;;;7.40;99.90;;;;;;5017800;28;20026;-65
2020/12/08 09:52:33;;;;;;;4.85;2.75;;;7.50;99.90;;;;;;5017494;28;20022;-66
2020/12/08 09:54:58;;;;;;;5.45;2.80;;;7.50;99.90;;;;;;5017872;28;20037;-65
2020/12/08 09:57:24;;;;;;;4.80;2.63;;;7.50;99.90;;;;;;5022015;28;20037;-63
2020/12/08 09:59:53;;;;;;;4.95;2.50;;;7.60;99.90;;;;;;5018082;28;20430;-65
2020/12/08 10:02:20;;;;;;;5.53;2.67;;;7.70;99.90;;;;;;5014066;28;20080;-66
2020/12/08 10:04:46;;;;;;;4.95;2.80;;;7.70;99.90;;;;;;5016768;28;20458;-67
2020/12/08 10:07:18;;;;;;;4.63;2.72;;;7.70;99.90;;;;;;5016159;28;20383;-62
2020/12/08 10:09:46;;;;;;;5.28;2.90;;;7.70;99.90;;;;;;5015267;28;20378;-66
2020/12/08 10:12:13;;;;;;;5.57;3.03;;;7.70;99.90;;;;;;5014806;28;20109;-67
2020/12/08 10:14:40;;;;;;;4.63;2.65;;;7.60;99.90;;;;;;5018734;28;20033;-67
2020/12/08 10:17:07;;;;;;;5.70;3.38;;;7.60;99.90;;;;;;5017404;28;20032;-66
2020/12/08 10:19:33;;;;;;;5.03;2.88;;;7.50;99.90;;;;;;5017051;28;20080;-68
2020/12/08 10:21:58;;;;;;;5.88;3.30;;;7.50;99.90;;;;;;5017308;28;20112;-65
2020/12/08 10:24:25;;;;;;;7.07;4.20;;;7.40;99.90;;;;;;5020704;28;20041;-67
2020/12/08 10:26:50;;;;;;;7.10;4.00;;;7.40;99.90;;;;;;5019980;28;20037;-66
2020/12/08 10:29:17;;;;;;;6.68;3.85;;;7.40;99.90;;;;;;5019688;28;20101;-67
2020/12/08 10:31:42;;;;;;;6.45;3.97;;;7.40;99.90;;;;;;5028467;28;20018;-66
2020/12/08 10:34:08;;;;;;;7.75;4.10;;;7.40;99.90;;;;;;5024523;28;20026;-67
2020/12/08 10:36:35;;;;;;;7.45;4.60;;;7.40;99.90;;;;;;5018297;28;20026;-65
2020/12/08 10:39:00;;;;;;;6.20;4.07;;;7.40;99.90;;;;;;5020051;28;20068;-65
2020/12/08 10:41:26;;;;;;;6.65;3.95;;;7.40;99.90;;;;;;5021720;28;20473;-69
2020/12/08 10:43:52;;;;;;;7.15;4.32;;;7.40;99.90;;;;;;5019805;28;20385;-69
2020/12/08 10:46:18;;;;;;;6.90;4.20;;;7.40;99.90;;;;;;5022476;28;20022;-67
2020/12/08 10:48:43;;;;;;;7.88;3.90;;;7.40;99.90;;;;;;5028981;28;20045;-65
2020/12/08 10:51:09;;;;;;;6.97;4.40;;;7.50;99.90;;;;;;5019059;28;20022;-71
2020/12/08 10:53:35;;;;;;;6.90;3.97;;;7.50;99.90;;;;;;5015617;28;20030;-68
2020/12/08 10:56:01;;;;;;;7.38;4.15;;;7.50;99.90;;;;;;5021808;28;20013;-72
2020/12/08 10:58:27;;;;;;;5.80;3.70;;;7.50;99.90;;;;;;5021931;28;20018;-71
2020/12/08 11:00:53;;;;;;;6.07;3.60;;;7.60;99.90;;;;;;5016352;28;20058;-66
2020/12/08 11:03:21;;;;;;;7.57;3.90;;;7.50;99.90;;;;;;5021030;28;20038;-72
2020/12/08 11:05:47;;;;;;;6.15;3.55;;;7.60;99.90;;;;;;5022936;28;20425;-71
2020/12/08 11:08:13;;;;;;;6.50;3.45;;;7.60;99.90;;;;;;5019519;28;20355;-71
2020/12/08 11:10:38;;;;;;;9.40;4.38;;;7.60;99.90;;;;;;5020650;28;20022;-68
2020/12/08 11:13:04;;;;;;;6.22;3.95;;;7.70;99.90;;;;;;5019507;28;20036;-70
2020/12/08 11:15:31;;;;;;;6.88;3.85;;;7.70;99.90;;;;;;5018339;28;20038;-70
2020/12/08 11:17:57;;;;;;;5.82;3.88;;;7.80;99.90;;;;;;5021002;28;20537;-65
2020/12/08 11:20:22;;;;;;;6.75;3.72;;;7.80;99.90;;;;;;5019237;28;20068;-70
2020/12/08 11:22:48;;;;;;;6.43;3.92;;;7.70;99.90;;;;;;5019986;28;20065;-69
2020/12/08 11:25:14;;;;;;;6.88;4.07;;;7.70;99.90;;;;;;5021203;28;20497;-71
2020/12/08 11:27:40;;;;;;;8.63;4.40;;;7.80;99.90;;;;;;5022278;28;20068;-65
2020/12/08 11:30:06;;;;;;;5.55;3.28;;;7.90;99.90;;;;;;5019295;28;20030;-72
2020/12/08 11:32:31;;;;;;;7.47;3.67;;;7.90;99.90;;;;;;5020272;28;20010;-67
2020/12/08 11:34:57;;;;;;;5.60;3.50;;;7.80;99.90;;;;;;5020121;28;20033;-67
2020/12/08 11:37:26;;;;;;;6.88;3.88;;;7.80;99.90;;;;;;5021410;28;20026;-66
2020/12/08 11:39:52;;;;;;;8.68;4.65;;;7.80;99.90;;;;;;5019991;28;20030;-67
2020/12/08 11:42:17;;;;;;;6.68;3.95;;;7.80;99.90;;;;;;5021181;28;20536;-63
2020/12/08 11:44:43;;;;;;;7.82;4.47;;;7.80;99.90;;;;;;5024255;28;20079;-64
2020/12/08 11:47:09;;;;;;;7.78;4.20;;;7.80;99.90;;;;;;5017309;28;20030;-66
2020/12/08 11:49:36;;;;;;;6.70;4.45;;;7.80;99.90;;;;;;5019367;28;20058;-64
2020/12/08 11:52:05;;;;;;;8.10;4.50;;;7.80;99.90;;;;;;5017105;28;20022;-64
2020/12/08 11:54:30;;;;;;;7.22;4.15;;;7.80;99.90;;;;;;5019179;28;20112;-63
2020/12/08 11:56:56;;;;;;;7.18;4.70;;;7.80;99.90;;;;;;5018677;28;20123;-64
2020/12/08 11:59:22;;;;;;;8.35;4.55;;;7.70;99.90;;;;;;5021499;28;20026;-64
2020/12/08 12:01:47;;;;;;;8.95;5.43;;;7.70;99.90;;;;;;5021491;28;20044;-65
2020/12/08 12:04:13;;;;;;;8.85;4.88;;;7.70;99.90;;;;;;5018576;28;20034;-63
2020/12/08 12:06:39;;;;;;;6.72;4.22;;;7.70;99.90;;;;;;5019507;28;20026;-62
2020/12/08 12:09:04;;;;;;;6.93;3.95;;;7.80;99.90;;;;;;5019741;28;20026;-67
2020/12/08 12:11:30;;;;;;;7.40;4.30;;;7.70;99.90;;;;;;5021983;28;20022;-67
2020/12/08 12:13:56;;;;;;;7.47;4.30;;;7.80;99.90;;;;;;5017787;28;20397;-65
2020/12/08 12:16:22;;;;;;;6.18;4.10;;;7.80;99.90;;;;;;5022331;28;20381;-69
2020/12/08 12:18:48;;;;;;;6.53;4.53;;;7.80;99.90;;;;;;5019007;28;20018;-66
2020/12/08 12:21:14;;;;;;;7.47;3.95;;;7.90;99.90;;;;;;5015711;28;20029;-67
2020/12/08 12:23:40;;;;;;;7.85;4.18;;;7.90;99.90;;;;;;5018021;28;20133;-68
2020/12/08 12:26:06;;;;;;;7.30;4.10;;;7.90;99.90;;;;;;5015884;28;20045;-66
2020/12/08 12:28:34;;;;;;;6.85;4.18;;;8.00;99.90;;;;;;5021585;28;20441;-63
2020/12/08 12:31:00;;;;;;;7.07;4.45;;;8.00;99.90;;;;;;5014435;28;20090;-66
2020/12/08 12:33:25;;;;;;;6.53;4.43;;;8.00;99.90;;;;;;5015800;28;20412;-68
2020/12/08 12:35:51;;;;;;;7.15;4.40;;;8.00;99.90;;;;;;5020071;28;20037;-67
2020/12/08 12:38:17;;;;;;;7.90;4.60;;;8.00;99.90;;;;;;5018303;28;20053;-67
2020/12/08 12:40:42;;;;;;;8.30;4.40;;;8.10;99.90;;;;;;5019491;28;20041;-67
2020/12/08 12:43:08;;;;;;;7.13;5.07;;;8.10;99.90;;;;;;5018370;28;20340;-63
2020/12/08 12:45:34;;;;;;;7.78;4.93;;;8.10;99.90;;;;;;5023074;28;20036;-64
2020/12/08 12:48:00;;;;;;;7.30;4.65;;;8.10;99.90;;;;;;5019327;28;20046;-65
2020/12/08 12:50:26;;;;;;;8.07;4.97;;;8.10;99.90;;;;;;5016374;28;20091;-65